New Germany, Minnesota
Current Conditions -  °F | °C
As of 8:34 AM on Saturday 25 Oct 2014 (Local Time) from KGYL Reporting Station
Clear Clear  
Wind Chill: 53°   Ceiling: Unl
Heat Index: 53°   Visibility: 10mi
Dew Point: 39°   Wind: 7mph
Humidity: 58%   Direction: 290°WNW
Pressure: 30.06"   Gusts: NA
Location:  44.88°N, 93.97°W
Report Text: KGYL 251334Z AUTO 29006KT 10SM CLR 12/04 A3006 RMK AO2 T01160037
Loading
Personal Weather Stations






























Interactive Weather Map
Tropical Storm Tracking
New forecast layout! Learn more

10-Day Weather Forecast

Advertisements
Track Severe Weather on mobile